createdAt,value
2023-01-20T00:01:31.767Z,-0.23
2023-01-20T00:04:02.567Z,0.19
2023-01-20T00:06:32.867Z,0.25
2023-01-20T00:09:04.271Z,0.33
2023-01-20T00:11:34.043Z,0.82
2023-01-20T00:14:05.009Z,0.83
2023-01-20T00:16:37.131Z,0.56
2023-01-20T00:19:06.985Z,0.72
2023-01-20T00:21:37.078Z,1.04
2023-01-20T00:24:07.334Z,1.26
2023-01-20T00:26:36.941Z,0.89
2023-01-20T00:29:06.507Z,-0.53
2023-01-20T00:31:38.973Z,-1.14
2023-01-20T00:34:08.546Z,-1.49
2023-01-20T00:36:38.127Z,-0.51
2023-01-20T00:39:08.106Z,-0.16
2023-01-20T00:41:37.640Z,-0.37
2023-01-20T00:44:07.421Z,-0.63
2023-01-20T00:46:39.524Z,-0.46
2023-01-20T00:49:09.049Z,-0.43
2023-01-20T00:51:38.603Z,-0.24
2023-01-20T00:54:08.639Z,-0.67
2023-01-20T00:56:38.198Z,-0.28
2023-01-20T00:59:07.687Z,-1.11
2023-01-20T01:01:39.899Z,-1.08
2023-01-20T01:04:09.564Z,-1.19
2023-01-20T01:06:39.595Z,-0.65
2023-01-20T01:09:09.188Z,-0.78
2023-01-20T01:11:38.749Z,-0.93
2023-01-20T01:14:08.270Z,-1.35
2023-01-20T01:16:40.411Z,-1.29
2023-01-20T01:19:10.194Z,-1.49
2023-01-20T01:21:39.810Z,-1.48
2023-01-20T01:24:09.432Z,-1.36
2023-01-20T01:26:38.973Z,-1.56
2023-01-20T01:29:08.501Z,-1.47
2023-01-20T01:31:40.658Z,-0.46
2023-01-20T01:34:10.976Z,-0.69
2023-01-20T01:36:40.540Z,-0.97
2023-01-20T01:39:10.162Z,-1.89
2023-01-20T01:41:39.738Z,-1.50
2023-01-20T01:44:11.998Z,-1.24
2023-01-20T01:46:45.497Z,-1.36
2023-01-20T01:49:20.474Z,-1.68
2023-01-20T01:51:58.442Z,-1.71
2023-01-20T01:54:32.561Z,-1.07
2023-01-20T01:57:02.896Z,-2.13
2023-01-20T01:59:32.794Z,-2.04
2023-01-20T02:02:05.110Z,-2.33
2023-01-20T02:04:35.228Z,-2.01
2023-01-20T02:07:10.793Z,-2.40
2023-01-20T02:09:41.023Z,-2.48
2023-01-20T02:12:13.611Z,-2.72
2023-01-20T02:14:46.064Z,-1.90
2023-01-20T02:17:28.225Z,-1.63
2023-01-20T02:20:25.939Z,-2.18
2023-01-20T02:23:02.411Z,-1.98
2023-01-20T02:26:10.469Z,-2.17
2023-01-20T02:29:09.753Z,-2.27
2023-01-20T02:32:04.770Z,-2.40
2023-01-20T02:34:38.134Z,-2.38
2023-01-20T02:37:13.514Z,-2.09
2023-01-20T02:39:47.353Z,-1.93
2023-01-20T02:42:24.909Z,-1.83
2023-01-20T02:44:59.671Z,-2.02
2023-01-20T02:47:35.855Z,-1.78
2023-01-20T02:50:12.784Z,-1.97
2023-01-20T02:52:46.461Z,-1.97
2023-01-20T02:55:31.723Z,-2.16
2023-01-20T02:58:05.842Z,-2.34
2023-01-20T03:00:39.579Z,-2.29
2023-01-20T03:03:15.673Z,-1.94
2023-01-20T03:05:51.571Z,-2.23
2023-01-20T03:08:23.643Z,-1.83
2023-01-20T03:10:57.290Z,-2.28
2023-01-20T03:13:32.682Z,-2.06
2023-01-20T03:16:06.414Z,-1.90
2023-01-20T03:18:40.421Z,-2.28
2023-01-20T03:21:12.021Z,-2.13
2023-01-20T03:23:45.589Z,-2.32
2023-01-20T03:26:17.607Z,-2.07
2023-01-20T03:28:48.909Z,-2.28
2023-01-20T03:31:24.158Z,-2.61
2023-01-20T03:33:59.568Z,-2.69
2023-01-20T03:36:32.484Z,-2.09
2023-01-20T03:39:02.257Z,-2.51
2023-01-20T03:41:41.110Z,-2.13
2023-01-20T03:44:15.351Z,-2.37
2023-01-20T03:46:52.270Z,-1.62
2023-01-20T03:49:31.073Z,-2.03
2023-01-20T03:52:06.382Z,-2.82
2023-01-20T03:54:46.725Z,-2.76
2023-01-20T03:57:21.005Z,-2.44
2023-01-20T03:59:53.790Z,-2.22
2023-01-20T04:02:25.563Z,-1.61
2023-01-20T04:04:59.359Z,-1.84
2023-01-20T04:07:29.522Z,-1.41
2023-01-20T04:10:04.051Z,-2.59
2023-01-20T04:12:35.885Z,-2.20
2023-01-20T04:15:05.648Z,-1.41
2023-01-20T04:17:35.298Z,-2.08
2023-01-20T04:20:11.985Z,-1.37
2023-01-20T04:22:48.823Z,-1.70
2023-01-20T04:25:25.510Z,-1.56
2023-01-20T04:27:55.081Z,-1.69
2023-01-20T04:30:24.730Z,-1.33
2023-01-20T04:32:54.336Z,-1.10
2023-01-20T04:35:26.852Z,-1.45
2023-01-20T04:37:56.395Z,-1.65
2023-01-20T04:40:25.931Z,-1.89
2023-01-20T04:42:55.491Z,-1.41
2023-01-20T04:45:25.059Z,-1.81
2023-01-20T04:47:54.623Z,-1.65
2023-01-20T04:50:26.737Z,-1.49
2023-01-20T04:53:00.528Z,-2.27
2023-01-20T04:55:30.278Z,-1.86
2023-01-20T04:57:59.828Z,-2.49
2023-01-20T05:00:29.550Z,-1.57
2023-01-20T05:03:00.255Z,-2.19
2023-01-20T05:05:32.355Z,-2.68
2023-01-20T05:08:02.975Z,-2.90
2023-01-20T05:10:32.521Z,-2.81
2023-01-20T05:13:02.761Z,-2.45
2023-01-20T05:15:32.334Z,-2.61
2023-01-20T05:18:01.932Z,-2.32
2023-01-20T05:20:34.098Z,-1.86
2023-01-20T05:23:03.810Z,-2.19
2023-01-20T05:25:33.380Z,-3.01
2023-01-20T05:28:02.948Z,-3.37
2023-01-20T05:30:32.527Z,-2.60
2023-01-20T05:33:02.090Z,-2.74
2023-01-20T05:35:34.162Z,-1.98
2023-01-20T05:38:03.653Z,-2.70
2023-01-20T05:40:33.355Z,-3.03
2023-01-20T05:43:03.239Z,-3.27
2023-01-20T05:45:33.542Z,-3.75
2023-01-20T05:48:04.705Z,-2.69
2023-01-20T05:50:36.991Z,-2.55
2023-01-20T05:53:06.594Z,-2.61
2023-01-20T05:55:36.148Z,-2.66
2023-01-20T05:58:06.257Z,-2.45
2023-01-20T06:00:35.783Z,-2.59
2023-01-20T06:03:05.550Z,-1.97
2023-01-20T06:05:37.722Z,-2.14
2023-01-20T06:08:07.982Z,-1.96
2023-01-20T06:10:37.536Z,-1.80
2023-01-20T06:13:07.048Z,-2.18
2023-01-20T06:15:36.558Z,-1.98
2023-01-20T06:18:06.586Z,-1.91
2023-01-20T06:20:38.788Z,-2.47
2023-01-20T06:23:08.313Z,-2.12
2023-01-20T06:25:37.831Z,-2.69
2023-01-20T06:28:07.705Z,-2.51
2023-01-20T06:30:38.272Z,-2.36
2023-01-20T06:33:10.948Z,-2.38
2023-01-20T06:35:43.095Z,-1.92
2023-01-20T06:38:12.637Z,-1.77
2023-01-20T06:40:42.133Z,-2.15
2023-01-20T06:43:11.688Z,-2.28
2023-01-20T06:45:41.261Z,-1.83
2023-01-20T06:48:10.818Z,-2.35
2023-01-20T06:50:42.902Z,-2.29
2023-01-20T06:53:12.489Z,-2.51
2023-01-20T06:55:41.993Z,-2.08
2023-01-20T06:58:11.582Z,-1.74
2023-01-20T07:00:41.203Z,-2.76
2023-01-20T07:03:14.001Z,-3.48
2023-01-20T07:05:46.196Z,-2.77
2023-01-20T07:08:15.729Z,-3.15
2023-01-20T07:10:45.704Z,-3.13
2023-01-20T07:13:15.297Z,-3.68
2023-01-20T07:15:44.856Z,-2.82
2023-01-20T07:18:14.455Z,-3.83
2023-01-20T07:20:46.567Z,-4.19
2023-01-20T07:23:16.488Z,-4.00
2023-01-20T07:25:46.012Z,-3.68
2023-01-20T07:28:15.657Z,-3.81
2023-01-20T07:30:45.276Z,-3.45
2023-01-20T07:33:14.857Z,-3.94
2023-01-20T07:35:47.052Z,-3.78
2023-01-20T07:38:16.868Z,-4.29
2023-01-20T07:40:46.363Z,-3.92
2023-01-20T07:43:15.922Z,-3.52
2023-01-20T07:45:45.504Z,-3.22
2023-01-20T07:48:15.058Z,-3.24
2023-01-20T07:50:47.220Z,-3.35
2023-01-20T07:53:16.845Z,-3.47
2023-01-20T07:55:46.409Z,-3.02
2023-01-20T07:58:15.939Z,-3.17
2023-01-20T08:00:48.735Z,-3.13
2023-01-20T08:03:18.494Z,-3.43
2023-01-20T08:05:50.592Z,-3.15
2023-01-20T08:08:20.114Z,-2.90
2023-01-20T08:10:56.592Z,-2.08
2023-01-20T08:13:26.184Z,-1.57
2023-01-20T08:15:55.754Z,-1.00
2023-01-20T08:18:25.361Z,-0.89
2023-01-20T08:20:57.494Z,-1.18
2023-01-20T08:23:27.433Z,-1.89
2023-01-20T08:26:00.441Z,-1.30
2023-01-20T08:28:30.693Z,-0.82
2023-01-20T08:31:06.725Z,-0.80
2023-01-20T08:33:36.358Z,-0.82
2023-01-20T08:36:12.105Z,-0.62
2023-01-20T08:38:42.266Z,-0.35
2023-01-20T08:41:12.850Z,-0.46
2023-01-20T08:43:42.755Z,-0.04
2023-01-20T08:46:14.565Z,-0.30
2023-01-20T08:48:45.610Z,0.75
2023-01-20T08:51:20.378Z,0.17
2023-01-20T08:53:50.501Z,0.92
2023-01-20T08:56:20.967Z,1.96
2023-01-20T08:58:50.664Z,0.18
2023-01-20T09:01:23.965Z,0.66
2023-01-20T09:04:05.025Z,1.47
2023-01-20T09:06:41.683Z,1.67
2023-01-20T09:09:11.348Z,0.11
2023-01-20T09:11:44.820Z,-0.10
2023-01-20T09:14:14.648Z,0.74
2023-01-20T09:16:44.253Z,1.46
2023-01-20T09:19:13.786Z,1.44
2023-01-20T09:21:45.932Z,1.30
2023-01-20T09:24:15.689Z,1.52
2023-01-20T09:26:45.522Z,1.36
2023-01-20T09:29:17.195Z,1.11
2023-01-20T09:31:51.409Z,1.09
2023-01-20T09:34:24.659Z,1.51
2023-01-20T09:37:19.323Z,1.50
2023-01-20T09:40:07.764Z,1.43
2023-01-20T09:43:00.516Z,2.10
2023-01-20T09:45:35.049Z,1.72
2023-01-20T09:48:26.359Z,1.92
2023-01-20T09:51:14.259Z,1.93
2023-01-20T09:53:58.641Z,1.71
2023-01-20T09:56:30.496Z,1.57
2023-01-20T09:59:06.133Z,2.03
2023-01-20T10:01:38.845Z,0.85
2023-01-20T10:04:16.362Z,1.67
2023-01-20T10:06:50.441Z,2.87
2023-01-20T10:09:31.560Z,2.95
2023-01-20T10:12:08.802Z,2.43
2023-01-20T10:14:43.637Z,2.73
2023-01-20T10:17:19.104Z,1.74
2023-01-20T10:19:56.260Z,2.41
2023-01-20T10:22:32.278Z,2.36
2023-01-20T10:25:09.579Z,2.91
2023-01-20T10:27:44.352Z,2.71
2023-01-20T10:30:16.856Z,3.18
2023-01-20T10:32:53.262Z,3.23
2023-01-20T10:35:26.994Z,3.42
2023-01-20T10:37:58.607Z,3.15
2023-01-20T10:40:39.053Z,3.55
2023-01-20T10:43:14.019Z,3.19
2023-01-20T10:46:04.057Z,3.34
2023-01-20T10:48:52.747Z,3.41
2023-01-20T10:51:33.960Z,3.18
2023-01-20T10:54:15.324Z,2.83
2023-01-20T10:56:53.679Z,2.06
2023-01-20T10:59:32.004Z,3.24
2023-01-20T11:02:12.445Z,2.63
2023-01-20T11:04:43.677Z,2.56
2023-01-20T11:07:18.911Z,3.09
2023-01-20T11:09:51.455Z,2.81
2023-01-20T11:12:28.293Z,3.28
2023-01-20T11:15:02.262Z,3.91
2023-01-20T11:17:32.027Z,2.38
2023-01-20T11:20:07.982Z,2.60
2023-01-20T11:22:40.257Z,2.24
2023-01-20T11:25:26.432Z,3.11
2023-01-20T11:27:59.004Z,2.63
2023-01-20T11:30:32.298Z,2.49
2023-01-20T11:33:18.925Z,3.02
2023-01-20T11:36:03.241Z,2.10
2023-01-20T11:38:34.266Z,2.59
2023-01-20T11:41:03.870Z,3.25
2023-01-20T11:43:40.769Z,3.67
2023-01-20T11:46:25.191Z,3.13
2023-01-20T11:49:19.498Z,3.02
2023-01-20T11:51:54.627Z,2.33
2023-01-20T11:54:25.872Z,3.47
2023-01-20T11:56:58.607Z,3.51
2023-01-20T11:59:35.039Z,3.61
2023-01-20T12:02:24.674Z,3.16
2023-01-20T12:05:09.827Z,2.76
2023-01-20T12:07:44.778Z,2.82
2023-01-20T12:10:21.607Z,3.24
2023-01-20T12:12:54.003Z,3.95
2023-01-20T12:15:28.988Z,3.82
2023-01-20T12:18:02.597Z,4.14
2023-01-20T12:20:54.219Z,3.72
2023-01-20T12:23:35.665Z,3.74
2023-01-20T12:26:07.471Z,2.83
2023-01-20T12:28:41.651Z,2.77
2023-01-20T12:31:17.347Z,2.64
2023-01-20T12:33:47.505Z,2.93
2023-01-20T12:36:52.795Z,2.92
2023-01-20T12:39:42.236Z,2.51
2023-01-20T12:42:47.871Z,3.06
2023-01-20T12:45:29.052Z,3.59
2023-01-20T12:48:26.266Z,4.18
2023-01-20T12:51:11.493Z,3.39
2023-01-20T12:53:59.216Z,3.40
2023-01-20T12:56:42.574Z,3.76
2023-01-20T12:59:27.240Z,3.68
2023-01-20T13:02:11.866Z,3.94
2023-01-20T13:05:02.724Z,4.17
2023-01-20T13:07:51.383Z,3.78
2023-01-20T13:10:50.918Z,4.04
2023-01-20T13:13:40.246Z,4.08
2023-01-20T13:16:23.706Z,4.25
2023-01-20T13:19:07.680Z,4.33
2023-01-20T13:21:41.213Z,4.08
2023-01-20T13:24:19.649Z,4.58
2023-01-20T13:26:51.163Z,4.74
2023-01-20T13:29:25.411Z,3.95
2023-01-20T13:31:55.577Z,4.21
2023-01-20T13:34:43.136Z,4.27
2023-01-20T13:37:31.857Z,4.21
2023-01-20T13:40:02.482Z,4.30
2023-01-20T13:42:49.457Z,4.28
2023-01-20T13:45:24.812Z,3.70
2023-01-20T13:47:57.596Z,3.17
2023-01-20T13:50:30.896Z,3.29
2023-01-20T13:53:16.645Z,3.29
2023-01-20T13:55:57.044Z,4.01
2023-01-20T13:58:27.757Z,3.28
2023-01-20T14:00:59.255Z,3.66
2023-01-20T14:03:31.317Z,3.90
2023-01-20T14:06:02.757Z,3.76
2023-01-20T14:08:41.760Z,3.66
2023-01-20T14:11:16.202Z,3.52
2023-01-20T14:13:54.260Z,4.07
2023-01-20T14:16:28.266Z,4.35
2023-01-20T14:19:00.302Z,3.96
2023-01-20T14:21:31.378Z,4.17
2023-01-20T14:24:04.294Z,4.11
2023-01-20T14:26:34.885Z,4.31
2023-01-20T14:29:05.267Z,3.37
2023-01-20T14:31:40.803Z,3.83
2023-01-20T14:34:26.964Z,3.57
2023-01-20T14:36:59.236Z,3.31
2023-01-20T14:39:33.381Z,3.16
2023-01-20T14:42:04.292Z,3.63
2023-01-20T14:44:35.535Z,3.75
2023-01-20T14:47:06.818Z,3.49
2023-01-20T14:49:39.496Z,2.90
2023-01-20T14:52:10.343Z,3.02
2023-01-20T14:54:46.200Z,2.85
2023-01-20T14:57:25.063Z,2.47
2023-01-20T15:00:16.471Z,3.32
2023-01-20T15:03:01.377Z,2.84
2023-01-20T15:05:41.038Z,2.74
2023-01-20T15:08:26.337Z,2.33
2023-01-20T15:11:23.241Z,2.49
2023-01-20T15:14:08.716Z,2.56
2023-01-20T15:16:47.567Z,2.74
2023-01-20T15:19:36.018Z,2.85
2023-01-20T15:22:22.096Z,3.27
2023-01-20T15:24:52.772Z,2.71
2023-01-20T15:27:29.273Z,2.62
2023-01-20T15:30:19.489Z,2.69
2023-01-20T15:32:50.379Z,2.73
2023-01-20T15:35:23.021Z,2.77
2023-01-20T15:37:53.241Z,2.56
2023-01-20T15:40:24.615Z,2.95
2023-01-20T15:42:57.548Z,2.95
2023-01-20T15:45:28.195Z,3.05
2023-01-20T15:47:58.464Z,2.59
2023-01-20T15:50:31.201Z,2.69
2023-01-20T15:53:01.003Z,3.89
2023-01-20T15:55:30.735Z,3.51
2023-01-20T15:58:03.744Z,2.69
2023-01-20T16:00:33.396Z,2.72
2023-01-20T16:03:03.678Z,2.44
2023-01-20T16:05:33.225Z,2.38
2023-01-20T16:08:02.771Z,2.78
2023-01-20T16:10:32.310Z,2.15
2023-01-20T16:13:04.603Z,1.62
2023-01-20T16:15:34.158Z,1.27
2023-01-20T16:18:03.748Z,1.70
2023-01-20T16:20:33.814Z,1.36
2023-01-20T16:23:05.875Z,1.70
2023-01-20T16:25:35.651Z,1.83
2023-01-20T16:28:14.801Z,1.95
2023-01-20T16:30:44.494Z,1.99
2023-01-20T16:33:22.902Z,1.41
2023-01-20T16:35:54.212Z,1.55
2023-01-20T16:38:25.759Z,1.88
2023-01-20T16:40:58.300Z,2.27
2023-01-20T16:43:30.572Z,2.37
2023-01-20T16:46:00.303Z,2.76
2023-01-20T16:48:29.877Z,2.46
2023-01-20T16:51:04.549Z,1.77
2023-01-20T16:53:34.729Z,2.40
2023-01-20T16:56:04.308Z,1.84
2023-01-20T16:58:36.451Z,1.61
2023-01-20T17:01:12.138Z,1.91
2023-01-20T17:03:42.389Z,1.81
2023-01-20T17:06:13.889Z,1.73
2023-01-20T17:08:45.813Z,2.16
2023-01-20T17:11:19.889Z,2.01
2023-01-20T17:13:52.478Z,2.76
2023-01-20T17:16:23.487Z,2.48
2023-01-20T17:18:53.871Z,2.84
2023-01-20T17:21:25.004Z,2.29
2023-01-20T17:23:55.934Z,2.38
2023-01-20T17:26:26.492Z,1.89
2023-01-20T17:29:02.237Z,2.52
2023-01-20T17:31:34.577Z,2.90
2023-01-20T17:34:04.189Z,2.27
2023-01-20T17:36:34.912Z,1.50
2023-01-20T17:39:05.826Z,1.40
2023-01-20T17:41:36.289Z,1.23
2023-01-20T17:44:08.673Z,1.47
2023-01-20T17:46:38.228Z,1.02
2023-01-20T17:49:08.155Z,1.07
2023-01-20T17:51:37.756Z,0.94
2023-01-20T17:54:07.364Z,1.13
2023-01-20T17:56:36.899Z,1.42
2023-01-20T17:59:09.021Z,1.51
2023-01-20T18:01:38.567Z,1.75
2023-01-20T18:04:10.466Z,1.92
2023-01-20T18:06:40.817Z,2.04
2023-01-20T18:09:10.504Z,1.85
2023-01-20T18:11:40.310Z,1.51
2023-01-20T18:14:12.725Z,1.79
2023-01-20T18:16:43.677Z,1.83
2023-01-20T18:19:15.472Z,1.40
2023-01-20T18:21:45.886Z,1.05
2023-01-20T18:24:15.671Z,1.53
2023-01-20T18:26:45.266Z,1.93
2023-01-20T18:29:19.282Z,1.49
2023-01-20T18:31:49.425Z,1.70
2023-01-20T18:34:19.168Z,0.59
2023-01-20T18:36:49.833Z,0.41
2023-01-20T18:39:21.775Z,0.69
2023-01-20T18:41:52.296Z,0.79
2023-01-20T18:44:24.988Z,1.47
2023-01-20T18:46:54.574Z,0.91
2023-01-20T18:49:24.453Z,0.84
2023-01-20T18:51:53.983Z,1.17
2023-01-20T18:54:25.851Z,1.51
2023-01-20T18:56:55.777Z,1.54
2023-01-20T18:59:28.310Z,0.98
2023-01-20T19:01:59.293Z,0.64
2023-01-20T19:04:30.001Z,1.04
2023-01-20T19:06:59.611Z,0.26
2023-01-20T19:09:29.400Z,0.08
2023-01-20T19:12:01.610Z,-0.15
2023-01-20T19:14:33.758Z,0.29
2023-01-20T19:17:03.316Z,-0.19
2023-01-20T19:19:32.875Z,0.10
2023-01-20T19:22:02.508Z,-0.03
2023-01-20T19:24:32.300Z,0.33
2023-01-20T19:27:03.084Z,0.46
2023-01-20T19:29:35.218Z,0.34
2023-01-20T19:32:04.756Z,1.22
2023-01-20T19:34:34.334Z,1.25
2023-01-20T19:37:04.056Z,0.59
2023-01-20T19:39:33.709Z,0.20
2023-01-20T19:42:03.269Z,0.52
2023-01-20T19:44:35.394Z,0.49
2023-01-20T19:47:05.053Z,0.23
2023-01-20T19:49:34.621Z,-0.47
2023-01-20T19:52:04.218Z,0.27
2023-01-20T19:54:34.423Z,0.70
2023-01-20T19:57:03.970Z,-0.20
2023-01-20T19:59:40.756Z,0.74
2023-01-20T20:02:11.692Z,0.11
2023-01-20T20:04:41.580Z,0.21
2023-01-20T20:07:11.245Z,0.42
2023-01-20T20:09:40.916Z,-0.46
2023-01-20T20:12:10.505Z,-0.78
2023-01-20T20:14:48.722Z,-0.54
2023-01-20T20:17:18.283Z,-0.22
2023-01-20T20:19:48.151Z,0.13
2023-01-20T20:22:17.705Z,0.48
2023-01-20T20:24:47.305Z,-0.26
2023-01-20T20:27:16.849Z,0.18
2023-01-20T20:29:48.991Z,-0.21
2023-01-20T20:32:18.701Z,-0.30
2023-01-20T20:34:48.681Z,-0.24
2023-01-20T20:37:18.326Z,-0.47
2023-01-20T20:39:47.849Z,-0.65
2023-01-20T20:42:17.832Z,-0.04
2023-01-20T20:44:49.984Z,-0.51
2023-01-20T20:47:20.378Z,-0.21
2023-01-20T20:49:49.949Z,-0.90
2023-01-20T20:52:19.569Z,-1.05
2023-01-20T20:54:49.579Z,-0.72
2023-01-20T20:57:19.113Z,-0.31
2023-01-20T20:59:58.889Z,-0.34
2023-01-20T21:02:29.419Z,-0.56
2023-01-20T21:04:59.026Z,-0.01
2023-01-20T21:07:28.600Z,-0.27
2023-01-20T21:09:58.527Z,-0.01
2023-01-20T21:12:28.105Z,-0.59
2023-01-20T21:15:00.298Z,-0.81
2023-01-20T21:17:29.832Z,-0.85
2023-01-20T21:20:00.003Z,-0.68
2023-01-20T21:22:29.701Z,-0.64
2023-01-20T21:24:59.304Z,-0.25
2023-01-20T21:27:28.899Z,-0.35
2023-01-20T21:30:01.021Z,-0.24
2023-01-20T21:32:30.901Z,0.01
2023-01-20T21:35:01.980Z,-0.03
2023-01-20T21:37:31.517Z,0.31
2023-01-20T21:40:01.090Z,0.44
2023-01-20T21:42:30.616Z,-0.01
2023-01-20T21:45:00.208Z,0.26
2023-01-20T21:47:29.739Z,0.67
2023-01-20T21:50:11.824Z,0.22
2023-01-20T21:52:45.291Z,-0.19
2023-01-20T21:55:18.965Z,-0.29
2023-01-20T21:57:51.062Z,-0.21
2023-01-20T22:00:24.274Z,-0.20
2023-01-20T22:02:53.849Z,-0.27
2023-01-20T22:05:23.480Z,-0.27
2023-01-20T22:07:53.028Z,0.33
2023-01-20T22:10:22.539Z,0.26
2023-01-20T22:12:52.182Z,-0.11
2023-01-20T22:15:24.281Z,0.26
2023-01-20T22:17:53.803Z,0.01
2023-01-20T22:20:23.328Z,0.63
2023-01-20T22:22:52.871Z,-0.06
2023-01-20T22:25:22.432Z,0.52
2023-01-20T22:27:51.972Z,0.24
2023-01-20T22:30:24.183Z,-0.60
2023-01-20T22:32:53.718Z,-0.48
2023-01-20T22:35:23.235Z,0.21
2023-01-20T22:37:52.752Z,0.13
2023-01-20T22:40:22.412Z,1.00
2023-01-20T22:42:51.930Z,-0.30
2023-01-20T22:45:24.135Z,-0.21
2023-01-20T22:47:53.696Z,0.01
2023-01-20T22:50:23.221Z,-0.20
2023-01-20T22:52:52.742Z,0.11
2023-01-20T22:55:22.238Z,-0.34
2023-01-20T22:57:52.524Z,-0.63
2023-01-20T23:00:25.307Z,-1.23
2023-01-20T23:02:54.854Z,-0.18
2023-01-20T23:05:24.448Z,-0.07
2023-01-20T23:07:53.961Z,-0.09
2023-01-20T23:10:35.808Z,-0.82
2023-01-20T23:13:05.357Z,-0.21
2023-01-20T23:15:37.451Z,-0.43
2023-01-20T23:18:07.532Z,-0.30
2023-01-20T23:20:37.171Z,-0.61
2023-01-20T23:23:07.050Z,-0.59
2023-01-20T23:25:36.821Z,-0.85
2023-01-20T23:28:06.427Z,-1.07
2023-01-20T23:30:38.859Z,-0.99
2023-01-20T23:33:09.298Z,-1.17
2023-01-20T23:35:39.852Z,-1.10
2023-01-20T23:38:09.494Z,-0.62
2023-01-20T23:40:39.181Z,-0.65
2023-01-20T23:43:09.031Z,-1.47
2023-01-20T23:45:41.115Z,-0.61
2023-01-20T23:48:10.759Z,-1.01
2023-01-20T23:50:40.297Z,-1.06
2023-01-20T23:53:09.827Z,-0.71
2023-01-20T23:55:39.814Z,-0.50
2023-01-20T23:58:09.340Z,-0.62
